Time;durP1;ratioP1;P1;durP2;ratioP2;P2;SDS_P1;SDS_P2;PMS_P1;PMS_P2;Temp;Humidity;BMP_temperature;BMP_pressure;BME280_temperature;BME280_humidity;BME280_pressure;Samples;Min_cycle;Max_cycle;Signal;HPM_P1;HPM_P2
2021/07/09 00:02:33;25410.00;0.08;44.64;0.00;0.00;0.62;;;;;20.70;6.90;;;;;;2260869;61;819;-91
2021/07/09 00:05:00;0.00;0.00;0.62;0.00;0.00;0.62;;;;;20.80;7.50;;;;;;2257085;61;990;-89
2021/07/09 00:07:28;67133.00;0.22;116.81;0.00;0.00;0.62;;;;;21.00;7.00;;;;;;2260677;61;1107;-90
2021/07/09 00:09:56;206564.00;0.69;357.22;63046.00;0.21;109.74;;;;;20.90;6.80;;;;;;2260702;61;1401;-90
2021/07/09 00:12:23;26516.00;0.09;46.55;0.00;0.00;0.62;;;;;21.10;6.60;;;;;;2260699;61;1986;-90
2021/07/09 00:14:51;270222.00;0.90;466.73;22426.00;0.07;39.47;;;;;21.00;6.10;;;;;;2260762;61;1020;-90
2021/07/09 00:17:18;122401.00;0.41;212.22;0.00;0.00;0.62;;;;;21.00;6.70;;;;;;2253764;61;945;-91
2021/07/09 00:19:45;146942.00;0.49;254.54;0.00;0.00;0.62;;;;;21.00;6.60;;;;;;2260725;61;1327;-90
2021/07/09 00:22:12;0.00;0.00;0.62;0.00;0.00;0.62;;;;;20.80;6.40;;;;;;2260770;61;1031;-90
2021/07/09 00:24:39;141833.00;0.47;245.73;0.00;0.00;0.62;;;;;20.80;6.70;;;;;;2257039;61;937;-91
2021/07/09 00:27:08;29411.00;0.10;51.56;0.00;0.00;0.62;;;;;20.80;6.70;;;;;;2252190;61;954;-91
2021/07/09 00:29:35;0.00;0.00;0.62;0.00;0.00;0.62;;;;;21.10;6.90;;;;;;2252123;61;1502;-90
2021/07/09 00:32:03;156834.00;0.52;271.58;0.00;0.00;0.62;;;;;21.10;6.50;;;;;;2252055;61;1038;-91
2021/07/09 00:34:31;97681.00;0.33;169.57;26217.00;0.09;46.03;;;;;21.20;6.00;;;;;;2244078;61;1998;-90
2021/07/09 00:36:58;86385.00;0.29;150.07;0.00;0.00;0.62;;;;;21.20;5.90;;;;;;2237508;61;998;-90
2021/07/09 00:39:25;288768.00;0.96;498.61;43288.00;0.14;75.58;;;;;21.30;4.90;;;;;;2236209;62;1421;-91
2021/07/09 00:41:52;122358.00;0.41;212.15;0.00;0.00;0.62;;;;;21.10;5.50;;;;;;2236209;62;1024;-91
2021/07/09 00:44:20;0.00;0.00;0.62;0.00;0.00;0.62;;;;;21.20;5.10;;;;;;2230879;62;1016;-91
2021/07/09 00:46:52;49824.00;0.17;86.88;0.00;0.00;0.62;;;;;21.20;4.50;;;;;;2237676;62;1063;-91
2021/07/09 00:49:20;157069.00;0.52;271.99;15738.00;0.05;27.89;;;;;21.30;4.80;;;;;;2237737;62;967;-90
2021/07/09 00:51:47;21003.00;0.07;37.01;0.00;0.00;0.62;;;;;21.10;4.20;;;;;;2244899;61;1053;-91
2021/07/09 00:54:14;68049.00;0.23;118.39;0.00;0.00;0.62;;;;;21.50;4.80;;;;;;2248174;61;2002;-91
2021/07/09 00:56:42;187292.00;0.62;324.05;0.00;0.00;0.62;;;;;21.50;3.90;;;;;;2249449;61;1036;-91
2021/07/09 00:59:13;51612.00;0.17;89.97;0.00;0.00;0.62;;;;;21.50;4.30;;;;;;2256882;61;973;-91
2021/07/09 01:01:41;119563.00;0.40;207.33;0.00;0.00;0.62;;;;;21.60;4.10;;;;;;2256781;61;1327;-91
2021/07/09 01:04:09;162632.00;0.54;281.57;0.00;0.00;0.62;;;;;21.60;3.80;;;;;;2253548;61;997;-91
2021/07/09 01:06:35;21227.00;0.07;37.39;0.00;0.00;0.62;;;;;21.20;4.60;;;;;;2256852;61;1070;-91
2021/07/09 01:09:03;174274.00;0.58;301.63;0.00;0.00;0.62;;;;;21.20;5.10;;;;;;2256765;61;1020;-91
2021/07/09 01:11:30;77315.00;0.26;134.40;0.00;0.00;0.62;;;;;21.00;5.00;;;;;;2253510;61;1402;-90
2021/07/09 01:13:57;80138.00;0.27;139.28;0.00;0.00;0.62;;;;;20.90;5.50;;;;;;2260463;61;1910;-91
2021/07/09 01:16:24;33446.00;0.11;58.55;0.00;0.00;0.62;;;;;20.90;5.70;;;;;;2253497;61;979;-91
2021/07/09 01:18:52;45474.00;0.15;79.36;0.00;0.00;0.62;;;;;20.60;6.60;;;;;;2260477;61;1022;-91
2021/07/09 01:21:19;246452.00;0.82;425.85;0.00;0.00;0.62;;;;;20.50;6.50;;;;;;2260456;61;1425;-91
2021/07/09 01:23:49;281430.00;0.94;486.00;47951.00;0.16;83.64;;;;;20.40;6.70;;;;;;2252006;61;1023;-91
2021/07/09 01:26:17;63830.00;0.21;111.10;0.00;0.00;0.62;;;;;20.40;6.60;;;;;;2245454;61;954;-91
2021/07/09 01:28:44;0.00;0.00;0.62;0.00;0.00;0.62;;;;;20.30;6.50;;;;;;2245484;61;981;-91
2021/07/09 01:31:12;204885.00;0.68;354.33;42572.00;0.14;74.34;;;;;20.20;7.70;;;;;;2245409;61;1495;-89
2021/07/09 01:33:42;59334.00;0.20;103.33;0.00;0.00;0.62;;;;;20.30;7.60;;;;;;2248629;61;1912;-90
2021/07/09 01:36:12;230404.00;0.77;398.24;59630.00;0.20;103.84;;;;;20.20;6.70;;;;;;2248694;61;970;-90
2021/07/09 01:38:39;358819.00;1.20;619.02;34367.00;0.11;60.14;;;;;20.20;7.30;;;;;;2244025;61;993;-90
2021/07/09 01:41:07;18709.00;0.06;33.03;0.00;0.00;0.62;;;;;20.00;8.00;;;;;;2242064;61;1375;-91
2021/07/09 01:43:35;64393.00;0.21;112.07;0.00;0.00;0.62;;;;;19.90;8.50;;;;;;2248619;61;1010;-91
2021/07/09 01:46:02;118480.00;0.39;205.46;0.00;0.00;0.62;;;;;20.00;8.40;;;;;;2251973;61;978;-89
2021/07/09 01:48:29;54025.00;0.18;94.15;0.00;0.00;0.62;;;;;19.70;8.90;;;;;;2244621;61;1001;-91
2021/07/09 01:50:57;111153.00;0.37;192.82;0.00;0.00;0.62;;;;;19.90;8.90;;;;;;2236740;62;1241;-91
2021/07/09 01:53:25;198881.00;0.66;344.00;0.00;0.00;0.62;;;;;19.90;8.90;;;;;;2230283;62;2000;-89
2021/07/09 01:55:52;18332.00;0.06;32.38;0.00;0.00;0.62;;;;;19.80;8.40;;;;;;2231752;61;989;-90
2021/07/09 01:58:19;39175.00;0.13;68.46;0.00;0.00;0.62;;;;;20.10;8.40;;;;;;2248651;61;1242;-89
2021/07/09 02:00:48;327382.00;1.09;564.99;102218.00;0.34;177.40;;;;;20.40;7.80;;;;;;2244555;61;1428;-90
2021/07/09 02:03:15;165240.00;0.55;286.07;0.00;0.00;0.62;;;;;20.60;6.60;;;;;;2244627;61;1016;-90
2021/07/09 02:05:42;69421.00;0.23;120.76;0.00;0.00;0.62;;;;;20.90;6.50;;;;;;2245142;61;1015;-91
2021/07/09 02:08:10;18561.00;0.06;32.78;0.00;0.00;0.62;;;;;21.00;5.20;;;;;;2240536;61;1082;-90
2021/07/09 02:10:39;154862.00;0.52;268.19;0.00;0.00;0.62;;;;;21.00;5.40;;;;;;2236658;62;1410;-90
2021/07/09 02:13:06;43162.00;0.14;75.36;0.00;0.00;0.62;;;;;21.10;5.30;;;;;;2236701;62;2009;-90
2021/07/09 02:15:38;1656.00;0.01;3.49;0.00;0.00;0.62;;;;;21.00;3.90;;;;;;2233497;62;1056;-89
2021/07/09 02:18:08;89002.00;0.30;154.58;0.00;0.00;0.62;;;;;21.00;5.60;;;;;;2234916;61;936;-90
2021/07/09 02:20:36;75.00;0.00;0.75;0.00;0.00;0.62;;;;;20.70;4.80;;;;;;2238120;61;1314;-91
2021/07/09 02:23:06;137024.00;0.46;237.44;0.00;0.00;0.62;;;;;20.40;6.40;;;;;;2238168;61;1006;-90
2021/07/09 02:25:33;9288.00;0.03;16.72;0.00;0.00;0.62;;;;;20.40;6.10;;;;;;2239853;61;1059;-90
2021/07/09 02:28:01;14744.00;0.05;26.17;0.00;0.00;0.62;;;;;20.40;7.00;;;;;;2254494;61;950;-89
2021/07/09 02:30:29;173900.00;0.58;300.98;0.00;0.00;0.62;;;;;20.50;6.50;;;;;;2256440;61;1303;-91
2021/07/09 02:32:57;156681.00;0.52;271.32;23568.00;0.08;41.45;;;;;20.30;6.40;;;;;;2256552;61;1996;-91
2021/07/09 02:35:27;59918.00;0.20;104.34;0.00;0.00;0.62;;;;;20.30;6.50;;;;;;2246684;61;967;-89
2021/07/09 02:37:55;161634.00;0.54;279.85;0.00;0.00;0.62;;;;;20.00;7.80;;;;;;2256442;61;956;-91
2021/07/09 02:40:24;14824.00;0.05;26.31;0.00;0.00;0.62;;;;;19.90;7.60;;;;;;2252529;61;1432;-90
2021/07/09 02:42:54;18521.00;0.06;32.71;0.00;0.00;0.62;;;;;19.90;7.90;;;;;;2244490;61;986;-90
2021/07/09 02:45:23;12857.00;0.04;22.90;0.00;0.00;0.62;;;;;20.10;6.80;;;;;;2238039;61;1016;-90
2021/07/09 02:47:50;0.00;0.00;0.62;0.00;0.00;0.62;;;;;20.10;6.30;;;;;;2239538;61;1025;-89
2021/07/09 02:50:20;37203.00;0.12;65.05;0.00;0.00;0.62;;;;;19.90;6.80;;;;;;2245842;61;1465;-89
2021/07/09 02:52:50;122424.00;0.41;212.26;0.00;0.00;0.62;;;;;20.00;6.70;;;;;;2245891;61;1020;-90
2021/07/09 02:55:18;21880.00;0.07;38.53;0.00;0.00;0.62;;;;;20.00;7.40;;;;;;2242677;61;2012;-89
2021/07/09 02:57:46;44277.00;0.15;77.29;0.00;0.00;0.62;;;;;19.90;6.80;;;;;;2245866;61;951;-89
2021/07/09 03:00:15;73091.00;0.24;127.10;0.00;0.00;0.62;;;;;19.90;7.00;;;;;;2246530;61;1425;-90
2021/07/09 03:02:43;164459.00;0.55;284.72;0.00;0.00;0.62;;;;;20.00;6.90;;;;;;2248464;61;982;-90
2021/07/09 03:05:12;0.00;0.00;0.62;0.00;0.00;0.62;;;;;20.10;6.90;;;;;;2236617;61;945;-91
2021/07/09 03:07:40;137343.00;0.46;237.99;10560.00;0.04;18.92;;;;;20.00;6.30;;;;;;2236572;62;1080;-91
2021/07/09 03:10:11;0.00;0.00;0.62;0.00;0.00;0.62;;;;;20.00;6.50;;;;;;2233265;62;1401;-91
2021/07/09 03:12:40;73150.00;0.24;127.20;0.00;0.00;0.62;;;;;20.10;6.10;;;;;;2236536;62;1020;-90
2021/07/09 03:15:10;88124.00;0.29;153.07;0.00;0.00;0.62;;;;;20.10;6.30;;;;;;2236484;62;2018;-91
2021/07/09 03:17:37;0.00;0.00;0.62;0.00;0.00;0.62;;;;;20.20;6.30;;;;;;2236604;62;959;-91
2021/07/09 03:20:06;125704.00;0.42;217.92;0.00;0.00;0.62;;;;;19.90;7.50;;;;;;2238070;61;1468;-91
2021/07/09 03:22:33;174937.00;0.58;302.77;0.00;0.00;0.62;;;;;20.00;6.20;;;;;;2245980;61;929;-91
2021/07/09 03:25:00;10738.00;0.04;19.23;0.00;0.00;0.62;;;;;20.10;6.20;;;;;;2249770;61;1045;-90
2021/07/09 03:27:28;1041.00;0.00;2.42;0.00;0.00;0.62;;;;;20.40;5.90;;;;;;2256318;61;1025;-91
2021/07/09 03:29:55;164615.00;0.55;284.99;0.00;0.00;0.62;;;;;20.60;4.90;;;;;;2256294;61;1408;-91
2021/07/09 03:32:22;2241.00;0.01;4.50;0.00;0.00;0.62;;;;;20.30;4.60;;;;;;2244280;61;995;-91
2021/07/09 03:34:49;133294.00;0.44;231.01;0.00;0.00;0.62;;;;;20.40;4.60;;;;;;2237555;61;2023;-91
2021/07/09 03:37:16;217934.00;0.73;376.79;6142.00;0.02;11.26;;;;;20.40;4.30;;;;;;2236411;62;1011;-89
2021/07/09 03:39:45;204787.00;0.68;354.16;0.00;0.00;0.62;;;;;20.00;5.10;;;;;;2235869;62;1449;-88
2021/07/09 03:42:12;18843.00;0.06;33.27;0.00;0.00;0.62;;;;;19.90;6.10;;;;;;2233521;61;1021;-88
2021/07/09 03:44:40;103903.00;0.35;180.31;0.00;0.00;0.62;;;;;19.90;6.10;;;;;;2237106;61;1000;-89
2021/07/09 03:47:07;42498.00;0.14;74.21;0.00;0.00;0.62;;;;;20.00;6.20;;;;;;2237091;61;1009;-90
2021/07/09 03:49:34;114239.00;0.38;198.14;0.00;0.00;0.62;;;;;20.30;6.40;;;;;;2237716;61;1401;-89
2021/07/09 03:52:01;261562.00;0.87;451.83;0.00;0.00;0.62;;;;;20.20;6.10;;;;;;2248146;61;981;-89
2021/07/09 03:54:28;13468.00;0.04;23.96;0.00;0.00;0.62;;;;;20.70;5.30;;;;;;2249094;61;2001;-89
2021/07/09 03:56:55;53717.00;0.18;93.61;0.00;0.00;0.62;;;;;20.70;3.50;;;;;;2256240;61;1163;-89
2021/07/09 03:59:22;75276.00;0.25;130.88;0.00;0.00;0.62;;;;;20.60;3.80;;;;;;2256214;61;1415;-89
2021/07/09 04:01:51;281895.00;0.94;486.80;39251.00;0.13;68.59;;;;;20.50;4.40;;;;;;2256175;61;1019;-89
2021/07/09 04:04:18;181520.00;0.61;314.11;0.00;0.00;0.62;;;;;20.50;4.70;;;;;;2256162;61;1330;-89
2021/07/09 04:06:45;48661.00;0.16;84.87;0.00;0.00;0.62;;;;;20.50;3.80;;;;;;2256256;61;1137;-89
2021/07/09 04:09:12;0.00;0.00;0.62;0.00;0.00;0.62;;;;;20.20;5.70;;;;;;2256638;61;1036;-89
2021/07/09 04:11:39;240876.00;0.80;416.26;0.00;0.00;0.62;;;;;20.20;3.90;;;;;;2256250;61;1596;-90
2021/07/09 04:14:06;202772.00;0.68;350.70;0.00;0.00;0.62;;;;;20.10;4.80;;;;;;2256516;61;1922;-90
2021/07/09 04:16:33;89097.00;0.30;154.75;0.00;0.00;0.62;;;;;20.30;5.20;;;;;;2256519;61;1733;-89
2021/07/09 04:19:01;253539.00;0.85;438.04;0.00;0.00;0.62;;;;;20.50;4.60;;;;;;2256510;61;1518;-90
2021/07/09 04:21:28;61673.00;0.21;107.37;0.00;0.00;0.62;;;;;20.30;4.40;;;;;;2256530;61;1383;-90
2021/07/09 04:23:55;132091.00;0.44;228.93;0.00;0.00;0.62;;;;;20.30;5.10;;;;;;2256604;61;1026;-89
2021/07/09 04:26:23;134316.00;0.45;232.77;0.00;0.00;0.62;;;;;20.30;3.60;;;;;;2256508;61;1748;-90
2021/07/09 04:28:50;133840.00;0.45;231.95;0.00;0.00;0.62;;;;;20.10;3.30;;;;;;2256536;61;1164;-89
2021/07/09 04:31:17;212619.00;0.71;367.64;0.00;0.00;0.62;;;;;19.90;5.70;;;;;;2256528;61;1329;-90
2021/07/09 04:33:45;145726.00;0.49;252.44;0.00;0.00;0.62;;;;;20.10;5.90;;;;;;2256548;61;1910;-90
2021/07/09 04:36:14;59123.00;0.20;102.96;0.00;0.00;0.62;;;;;20.00;4.70;;;;;;2256343;61;1617;-89
2021/07/09 04:38:40;179377.00;0.60;310.42;0.00;0.00;0.62;;;;;20.00;5.90;;;;;;2256537;61;926;-90
2021/07/09 04:41:07;181453.00;0.60;313.99;0.00;0.00;0.62;;;;;20.20;5.10;;;;;;2256510;61;1307;-90
2021/07/09 04:43:38;710070.00;2.37;1224.71;181070.00;0.60;313.33;;;;;20.20;5.50;;;;;;2256467;61;1730;-89
2021/07/09 04:46:05;28975.00;0.10;50.81;0.00;0.00;0.62;;;;;20.20;4.90;;;;;;2256539;61;1328;-90
2021/07/09 04:48:32;69029.00;0.23;120.08;0.00;0.00;0.62;;;;;20.20;3.80;;;;;;2256464;61;1719;-89
2021/07/09 04:51:01;133569.00;0.45;231.48;0.00;0.00;0.62;;;;;20.00;3.70;;;;;;2256392;61;1262;-88
2021/07/09 04:53:30;282804.00;0.94;488.36;55283.00;0.18;96.32;;;;;19.80;5.40;;;;;;2256378;61;1752;-87
2021/07/09 04:55:57;88159.00;0.29;153.13;0.00;0.00;0.62;;;;;19.50;6.60;;;;;;2256444;61;1046;-88
2021/07/09 04:58:24;0.00;0.00;0.62;0.00;0.00;0.62;;;;;19.70;5.90;;;;;;2256515;61;1022;-88
2021/07/09 05:00:51;351266.00;1.17;606.04;0.00;0.00;0.62;;;;;19.30;6.90;;;;;;2256396;61;1401;-88
2021/07/09 05:03:18;5651.00;0.02;10.41;0.00;0.00;0.62;;;;;19.30;7.40;;;;;;2256425;61;1100;-89
2021/07/09 05:05:45;71407.00;0.24;124.19;0.00;0.00;0.62;;;;;19.60;7.00;;;;;;2256486;61;979;-89
2021/07/09 05:08:12;65390.00;0.22;113.79;0.00;0.00;0.62;;;;;19.80;5.70;;;;;;2256501;61;1027;-87
2021/07/09 05:10:40;37965.00;0.13;66.37;0.00;0.00;0.62;;;;;19.90;5.10;;;;;;2256417;61;1405;-88
2021/07/09 05:13:09;175906.00;0.59;304.44;0.00;0.00;0.62;;;;;20.00;4.50;;;;;;2256455;61;1024;-88
2021/07/09 05:15:36;107126.00;0.36;185.87;0.00;0.00;0.62;;;;;19.80;5.10;;;;;;2256356;61;2011;-87
2021/07/09 05:18:04;34453.00;0.11;60.29;0.00;0.00;0.62;;;;;19.70;5.70;;;;;;2256421;61;1099;-88
2021/07/09 05:20:33;12280.00;0.04;21.90;0.00;0.00;0.62;;;;;19.80;6.00;;;;;;2256425;61;1385;-88
2021/07/09 05:23:00;33322.00;0.11;58.33;0.00;0.00;0.62;;;;;19.70;5.60;;;;;;2256993;61;1716;-88
2021/07/09 05:25:28;212870.00;0.71;368.07;0.00;0.00;0.62;;;;;19.90;6.10;;;;;;2257163;61;1741;-88
2021/07/09 05:27:56;139432.00;0.46;241.59;0.00;0.00;0.62;;;;;20.10;4.10;;;;;;2257149;61;1120;-87
2021/07/09 05:30:23;58874.00;0.20;102.53;0.00;0.00;0.62;;;;;20.10;4.60;;;;;;2256892;61;1692;-88
2021/07/09 05:32:50;3718.00;0.01;7.06;0.00;0.00;0.62;;;;;19.90;5.10;;;;;;2257129;61;1069;-89
2021/07/09 05:35:17;24700.00;0.08;43.41;0.00;0.00;0.62;;;;;19.40;5.70;;;;;;2257042;61;1919;-88
2021/07/09 05:37:44;207194.00;0.69;358.31;0.00;0.00;0.62;;;;;19.30;6.50;;;;;;2257056;61;1096;-89
2021/07/09 05:40:13;107382.00;0.36;186.31;0.00;0.00;0.62;;;;;19.40;6.80;;;;;;2256954;61;1559;-88
2021/07/09 05:42:39;74507.00;0.25;129.55;0.00;0.00;0.62;;;;;19.40;5.90;;;;;;2256989;61;1133;-89
2021/07/09 05:45:09;176361.00;0.59;305.22;0.00;0.00;0.62;;;;;19.50;6.30;;;;;;2257059;61;1827;-89
2021/07/09 05:47:36;158575.00;0.53;274.58;0.00;0.00;0.62;;;;;19.30;7.60;;;;;;2256969;61;973;-89
2021/07/09 05:50:03;10929.00;0.04;19.56;0.00;0.00;0.62;;;;;19.50;6.80;;;;;;2257010;61;1397;-88
2021/07/09 05:52:30;9302.00;0.03;16.74;0.00;0.00;0.62;;;;;19.50;6.60;;;;;;2257069;61;1064;-89
2021/07/09 05:54:57;11385.00;0.04;20.35;0.00;0.00;0.62;;;;;19.20;7.20;;;;;;2256969;61;1989;-88
2021/07/09 05:57:24;145022.00;0.48;251.23;0.00;0.00;0.62;;;;;18.80;8.70;;;;;;2256986;61;1548;-89
2021/07/09 05:59:51;99745.00;0.33;173.13;0.00;0.00;0.62;;;;;18.90;9.00;;;;;;2257112;61;1412;-88
2021/07/09 06:02:19;106923.00;0.36;185.52;0.00;0.00;0.62;;;;;19.30;6.30;;;;;;2257227;61;1017;-89
2021/07/09 06:04:46;47358.00;0.16;82.62;0.00;0.00;0.62;;;;;19.40;7.10;;;;;;2257327;61;1061;-88
2021/07/09 06:07:13;229133.00;0.76;396.06;43051.00;0.14;75.17;;;;;19.50;7.00;;;;;;2257246;61;1791;-88
2021/07/09 06:09:40;13160.00;0.04;23.42;0.00;0.00;0.62;;;;;19.40;7.90;;;;;;2257243;61;1438;-88
2021/07/09 06:12:08;560134.00;1.87;965.43;115446.00;0.38;200.23;;;;;19.60;6.70;;;;;;2257118;61;1053;-88
2021/07/09 06:14:35;4163.00;0.01;7.84;0.00;0.00;0.62;;;;;19.30;7.80;;;;;;2257104;61;1909;-89
2021/07/09 06:17:02;170647.00;0.57;295.38;0.00;0.00;0.62;;;;;19.30;8.00;;;;;;2257108;61;1503;-89
2021/07/09 06:19:31;26847.00;0.09;47.13;0.00;0.00;0.62;;;;;19.40;6.70;;;;;;2257136;61;1309;-89
2021/07/09 06:21:58;31915.00;0.11;55.90;0.00;0.00;0.62;;;;;19.70;7.50;;;;;;2257095;61;1103;-88
2021/07/09 06:24:25;0.00;0.00;0.62;0.00;0.00;0.62;;;;;20.00;6.20;;;;;;2257174;61;1159;-89
2021/07/09 06:26:52;19776.00;0.07;34.88;0.00;0.00;0.62;;;;;20.00;6.10;;;;;;2257069;61;1118;-89
2021/07/09 06:29:19;25739.00;0.09;45.21;0.00;0.00;0.62;;;;;19.90;6.10;;;;;;2257132;61;930;-89
2021/07/09 06:31:46;211556.00;0.71;365.81;0.00;0.00;0.62;;;;;19.90;6.20;;;;;;2257016;61;1464;-88
2021/07/09 06:34:13;0.00;0.00;0.62;0.00;0.00;0.62;;;;;19.70;6.30;;;;;;2256817;61;1990;-88
2021/07/09 06:36:41;73056.00;0.24;127.04;0.00;0.00;0.62;;;;;19.80;6.90;;;;;;2256983;61;1598;-89
2021/07/09 06:39:08;61350.00;0.20;106.81;0.00;0.00;0.62;;;;;20.00;6.20;;;;;;2256882;61;1145;-87
2021/07/09 06:41:35;108397.00;0.36;188.06;0.00;0.00;0.62;;;;;20.00;6.20;;;;;;2256502;61;1469;-87
2021/07/09 06:44:02;0.00;0.00;0.62;0.00;0.00;0.62;;;;;19.90;7.10;;;;;;2249484;61;1173;-87
2021/07/09 06:46:29;75.00;0.00;0.75;0.00;0.00;0.62;;;;;20.00;6.20;;;;;;2256544;61;1152;-86
2021/07/09 06:48:56;13945.00;0.05;24.78;0.00;0.00;0.62;;;;;19.90;7.40;;;;;;2249721;61;1005;-86
2021/07/09 06:51:23;70565.00;0.24;122.74;0.00;0.00;0.62;;;;;20.30;6.40;;;;;;2249752;61;1497;-88
2021/07/09 06:53:52;0.00;0.00;0.62;0.00;0.00;0.62;;;;;20.50;6.10;;;;;;2248462;61;1157;-89
2021/07/09 06:56:19;24970.00;0.08;43.88;0.00;0.00;0.62;;;;;21.00;3.90;;;;;;2248440;61;1933;-91
2021/07/09 06:58:46;79808.00;0.27;138.71;0.00;0.00;0.62;;;;;20.90;3.60;;;;;;2242084;61;965;-90
2021/07/09 07:01:13;118673.00;0.40;205.79;0.00;0.00;0.62;;;;;20.90;4.50;;;;;;2248472;61;1421;-90
2021/07/09 07:03:40;57560.00;0.19;100.26;0.00;0.00;0.62;;;;;20.90;3.00;;;;;;2242024;61;961;-89
2021/07/09 07:06:07;131308.00;0.44;227.58;0.00;0.00;0.62;;;;;20.80;3.90;;;;;;2240489;61;936;-89
2021/07/09 07:08:34;26644.00;0.09;46.77;0.00;0.00;0.62;;;;;20.60;4.90;;;;;;2233933;61;1018;-90
2021/07/09 07:11:02;41514.00;0.14;72.51;0.00;0.00;0.62;;;;;20.60;5.70;;;;;;2237764;61;1241;-90
2021/07/09 07:13:29;45553.00;0.15;79.49;0.00;0.00;0.62;;;;;20.40;5.70;;;;;;2248301;61;946;-89
2021/07/09 07:15:59;61716.00;0.21;107.44;0.00;0.00;0.62;;;;;20.30;6.20;;;;;;2248271;61;1907;-90
2021/07/09 07:18:26;156573.00;0.52;271.13;0.00;0.00;0.62;;;;;20.20;6.50;;;;;;2241678;61;1011;-89
2021/07/09 07:20:58;10756.00;0.04;19.26;0.00;0.00;0.62;;;;;20.10;8.00;;;;;;2244773;61;1389;-90
2021/07/09 07:23:25;152708.00;0.51;264.47;0.00;0.00;0.62;;;;;20.10;7.20;;;;;;2244117;61;966;-90
2021/07/09 07:25:52;703514.00;2.35;1213.33;284588.00;0.95;491.43;;;;;20.20;6.50;;;;;;2240279;61;1050;-89
2021/07/09 07:28:22;10741.00;0.04;19.23;0.00;0.00;0.62;;;;;20.60;6.60;;;;;;2238382;61;954;-91
2021/07/09 07:30:49;37501.00;0.13;65.56;0.00;0.00;0.62;;;;;20.60;6.00;;;;;;2240118;62;1288;-90
2021/07/09 07:33:16;77823.00;0.26;135.28;0.00;0.00;0.62;;;;;20.80;3.90;;;;;;2240292;62;1088;-91
2021/07/09 07:35:43;0.00;0.00;0.62;0.00;0.00;0.62;;;;;20.70;5.00;;;;;;2233706;62;1929;-90
2021/07/09 07:38:10;261176.00;0.87;451.17;0.00;0.00;0.62;;;;;20.90;4.30;;;;;;2232382;62;976;-90
2021/07/09 07:40:38;218336.00;0.73;377.48;0.00;0.00;0.62;;;;;21.10;4.90;;;;;;2232761;62;1486;-91
2021/07/09 07:43:05;238900.00;0.80;412.86;0.00;0.00;0.62;;;;;21.30;3.50;;;;;;2236720;62;1821;-90
2021/07/09 07:45:34;6443.00;0.02;11.79;0.00;0.00;0.62;;;;;21.10;3.90;;;;;;2240260;62;1631;-91
2021/07/09 07:48:02;205877.00;0.69;356.04;40697.00;0.14;71.09;;;;;21.20;4.40;;;;;;2241333;61;1109;-91
2021/07/09 07:50:28;224000.00;0.75;387.23;0.00;0.00;0.62;;;;;21.30;2.40;;;;;;2241570;61;1337;-91
2021/07/09 07:52:56;44468.00;0.15;77.62;0.00;0.00;0.62;;;;;21.10;3.70;;;;;;2248137;61;1020;-91
2021/07/09 07:55:24;110874.00;0.37;192.34;0.00;0.00;0.62;;;;;21.30;3.60;;;;;;2248759;61;2013;-91
2021/07/09 07:57:55;113161.00;0.38;196.28;0.00;0.00;0.62;;;;;21.40;3.10;;;;;;2256526;61;1083;-91
2021/07/09 08:00:25;0.00;0.00;0.62;0.00;0.00;0.62;;;;;21.50;2.60;;;;;;2256578;61;1388;-92
2021/07/09 08:02:53;72570.00;0.24;126.20;0.00;0.00;0.62;;;;;21.90;2.10;;;;;;2256466;61;1045;-92
2021/07/09 08:05:22;148896.00;0.50;257.90;0.00;0.00;0.62;;;;;22.10;1.00;;;;;;2255950;61;959;-93
2021/07/09 08:07:49;91739.00;0.31;159.31;0.00;0.00;0.62;;;;;21.90;1.30;;;;;;2256055;61;965;-91
2021/07/09 08:10:16;204303.00;0.68;353.33;0.00;0.00;0.62;;;;;22.00;1.10;;;;;;2255996;61;1409;-91
2021/07/09 08:12:43;145416.00;0.48;251.91;0.00;0.00;0.62;;;;;22.20;1.40;;;;;;2256039;61;1024;-91
2021/07/09 08:15:10;183992.00;0.61;318.36;0.00;0.00;0.62;;;;;22.00;1.00;;;;;;2249285;61;2002;-91
2021/07/09 08:17:37;102217.00;0.34;177.40;0.00;0.00;0.62;;;;;22.10;1.00;;;;;;2256044;61;1010;-92
2021/07/09 08:20:08;97476.00;0.32;169.21;0.00;0.00;0.62;;;;;22.60;1.80;;;;;;2249429;61;1327;-90
2021/07/09 08:22:36;108008.00;0.36;187.39;0.00;0.00;0.62;;;;;23.10;1.00;;;;;;2251957;61;1002;-91
2021/07/09 08:25:05;120813.00;0.40;209.48;0.00;0.00;0.62;;;;;23.60;1.00;;;;;;2252010;61;1022;-92
2021/07/09 08:27:32;209843.00;0.70;362.87;0.00;0.00;0.62;;;;;23.90;1.00;;;;;;2252061;61;1046;-91
2021/07/09 08:29:59;147778.00;0.49;255.98;0.00;0.00;0.62;;;;;23.90;1.00;;;;;;2251773;61;1611;-91
2021/07/09 09:42:23;1317975.00;4.39;2305.04;0.00;0.00;0.62;;;;;25.60;1.00;;;;;;2266587;61;1148;-91
2021/07/09 10:45:48;370533.00;1.24;639.15;18308.00;0.06;32.34;;;;;23.70;1.00;;;;;;2429051;41;3371;31
2021/07/09 11:26:52;1862705.00;6.21;3346.12;46173.00;0.15;80.57;;;;;26.90;1.00;;;;;;2263390;61;1022;-93
2021/07/09 11:29:25;985638.00;3.29;1707.05;84867.00;0.28;147.44;;;;;26.70;1.00;;;;;;2260961;61;1017;-91
2021/07/09 12:05:24;1498105.00;4.99;2639.55;100083.00;0.33;173.72;;;;;28.00;1.00;;;;;;2323855;55;3792;-94
2021/07/09 12:08:14;1296982.00;4.32;2266.58;139751.00;0.47;242.14;;;;;27.50;1.00;;;;;;2300096;55;4180;31
2021/07/09 14:03:53;1056367.00;3.52;1832.57;0.00;0.00;0.62;;;;;28.50;1.00;;;;;;2271033;61;1320;-91
2021/07/09 14:06:20;91738.00;0.31;159.31;0.00;0.00;0.62;;;;;27.90;1.00;;;;;;2269284;61;1043;-91
2021/07/09 14:09:00;;;;;;;;;;;;;;;;;;;;;
2021/07/09 14:13:55;202547.00;0.68;350.31;0.00;0.00;0.62;;;;;26.00;1.00;;;;;;2267831;61;1210;-92
2021/07/09 14:49:23;1423865.00;4.75;2500.66;0.00;0.00;0.62;;;;;26.60;1.00;;;;;;2267347;61;1322;-91
2021/07/09 14:54:17;31272.00;0.10;54.78;0.00;0.00;0.62;;;;;27.20;1.00;;;;;;2271040;61;1335;-83
2021/07/09 14:56:44;0.00;0.00;0.62;0.00;0.00;0.62;;;;;27.00;1.00;;;;;;2269275;61;1912;-81
2021/07/09 14:59:11;46775.00;0.16;81.61;0.00;0.00;0.62;;;;;26.30;1.00;;;;;;2269253;61;1123;-84
2021/07/09 15:01:38;0.00;0.00;0.62;0.00;0.00;0.62;;;;;26.10;1.00;;;;;;2269225;61;1420;-83
2021/07/09 15:04:05;0.00;0.00;0.62;0.00;0.00;0.62;;;;;26.40;1.00;;;;;;2269263;61;1076;-81
2021/07/09 15:06:34;0.00;0.00;0.62;0.00;0.00;0.62;;;;;26.50;1.00;;;;;;2269275;61;1056;-83
2021/07/09 17:17:58;0.00;0.00;0.62;0.00;0.00;0.62;;;;;23.50;1.00;;;;;;2497013;40;3526;31
2021/07/09 17:37:41;0.00;0.00;0.62;0.00;0.00;0.62;;;;;22.60;1.00;;;;;;2267204;61;1953;-88
2021/07/09 17:47:34;27407.00;0.09;48.09;0.00;0.00;0.62;;;;;22.80;1.00;;;;;;2267374;61;925;-87
2021/07/09 18:02:21;83099.00;0.28;144.39;0.00;0.00;0.62;;;;;23.60;1.00;;;;;;2495424;41;3469;31
2021/07/09 18:09:44;0.00;0.00;0.62;0.00;0.00;0.62;;;;;23.30;1.00;;;;;;2494645;41;4111;31
2021/07/09 18:41:55;7489.00;0.02;13.60;0.00;0.00;0.62;;;;;22.20;1.00;;;;;;2502244;40;3503;31
2021/07/09 18:49:17;15239.00;0.05;27.02;0.00;0.00;0.62;;;;;21.50;1.00;;;;;;2495425;55;3623;31
2021/07/09 20:16:20;12800.00;0.04;22.80;0.00;0.00;0.62;;;;;22.30;1.00;;;;;;2270630;61;1896;-89
2021/07/09 20:56:01;233235.00;0.78;403.11;0.00;0.00;0.62;;;;;22.60;1.00;;;;;;2270475;61;1942;-87
2021/07/09 21:20:57;1498714.00;5.00;2640.70;87643.00;0.29;152.24;;;;;21.80;1.00;;;;;;2266944;61;985;-86
2021/07/09 21:25:54;927133.00;3.09;1603.83;69170.00;0.23;120.33;;;;;21.80;1.00;;;;;;2270632;61;1323;-88
2021/07/09 22:15:25;22097.00;0.07;38.90;0.00;0.00;0.62;;;;;22.30;1.00;;;;;;2504051;55;3625;31
2021/07/09 22:20:21;244747.00;0.82;422.92;0.00;0.00;0.62;;;;;22.10;1.00;;;;;;2271384;61;1093;-88
2021/07/09 22:37:42;0.00;0.00;0.62;0.00;0.00;0.62;;;;;22.10;1.00;;;;;;2266632;61;2001;-87
2021/07/09 22:40:11;245632.00;0.82;424.44;0.00;0.00;0.62;;;;;22.00;1.00;;;;;;2257893;61;972;-87
2021/07/09 22:42:40;0.00;0.00;0.62;0.00;0.00;0.62;;;;;21.80;1.00;;;;;;2257853;61;990;-87
2021/07/09 22:45:11;87778.00;0.29;152.47;0.00;0.00;0.62;;;;;21.60;1.00;;;;;;2264859;61;1396;-87
2021/07/09 22:47:39;0.00;0.00;0.62;0.00;0.00;0.62;;;;;21.20;1.00;;;;;;2264693;61;1054;-86
2021/07/09 22:50:07;0.00;0.00;0.62;0.00;0.00;0.62;;;;;20.80;1.00;;;;;;2257875;61;1005;-86
2021/07/09 22:52:34;108011.00;0.36;187.40;35866.00;0.12;62.74;;;;;20.60;1.00;;;;;;2264834;61;1058;-86
2021/07/09 22:55:03;364272.00;1.21;628.39;46575.00;0.16;81.26;;;;;20.30;1.00;;;;;;2257770;61;1452;-86
2021/07/09 22:57:30;133230.00;0.44;230.90;0.00;0.00;0.62;;;;;20.20;1.00;;;;;;2264731;61;2000;-87
2021/07/09 22:59:57;99002.00;0.33;171.85;0.00;0.00;0.62;;;;;19.90;1.00;;;;;;2264765;61;1004;-86
2021/07/09 23:02:24;368631.00;1.23;635.88;96504.00;0.32;167.54;;;;;20.00;1.00;;;;;;2264796;61;1098;-86